Map

Track Data

SID SEASON NUMBER BASIN SUBBASIN NAME ISO_TIME NATURE LAT LON WMO_WIND WMO_PRES WMO_AGENCY TRACK_TYPE DIST2LAND LANDFALL IFLAG USA_AGENCY USA_ATCF_ID USA_LAT USA_LON USA_RECORD USA_STATUS USA_WIND USA_PRES USA_SSHS USA_R34_NE USA_R34_SE USA_R34_SW USA_R34_NW USA_R50_NE USA_R50_SE USA_R50_SW USA_R50_NW USA_R64_NE USA_R64_SE USA_R64_SW USA_R64_NW USA_POCI USA_ROCI USA_RMW USA_EYE TOKYO_LAT TOKYO_LON TOKYO_GRADE TOKYO_WIND TOKYO_PRES TOKYO_R50_DIR TOKYO_R50_LONG TOKYO_R50_SHORT TOKYO_R30_DIR TOKYO_R30_LONG TOKYO_R30_SHORT TOKYO_LAND CMA_LAT CMA_LON CMA_CAT CMA_WIND CMA_PRES HKO_LAT HKO_LON HKO_CAT HKO_WIND HKO_PRES NEWDELHI_LAT NEWDELHI_LON NEWDELHI_GRADE NEWDELHI_WIND NEWDELHI_PRES NEWDELHI_CI NEWDELHI_DP NEWDELHI_POCI REUNION_LAT REUNION_LON REUNION_TYPE REUNION_WIND REUNION_PRES REUNION_TNUM REUNION_CI REUNION_RMW REUNION_R34_NE REUNION_R34_SE REUNION_R34_SW REUNION_R34_NW REUNION_R50_NE REUNION_R50_SE REUNION_R50_SW REUNION_R50_NW REUNION_R64_NE REUNION_R64_SE REUNION_R64_SW REUNION_R64_NW BOM_LAT BOM_LON BOM_TYPE BOM_WIND BOM_PRES BOM_TNUM BOM_CI BOM_RMW BOM_R34_NE BOM_R34_SE BOM_R34_SW BOM_R34_NW BOM_R50_NE BOM_R50_SE BOM_R50_SW BOM_R50_NW BOM_R64_NE BOM_R64_SE BOM_R64_SW BOM_R64_NW BOM_ROCI BOM_POCI BOM_EYE BOM_POS_METHOD BOM_PRES_METHOD NADI_LAT NADI_LON NADI_CAT NADI_WIND NADI_PRES WELLINGTON_LAT WELLINGTON_LON WELLINGTON_WIND WELLINGTON_PRES DS824_LAT DS824_LON DS824_STAGE DS824_WIND DS824_PRES TD9636_LAT TD9636_LON TD9636_STAGE TD9636_WIND TD9636_PRES TD9635_LAT TD9635_LON TD9635_WIND TD9635_PRES TD9635_ROCI NEUMANN_LAT NEUMANN_LON NEUMANN_CLASS NEUMANN_WIND NEUMANN_PRES MLC_LAT MLC_LON MLC_CLASS MLC_WIND MLC_PRES USA_GUST BOM_GUST BOM_GUST_PER REUNION_GUST REUNION_GUST_PER USA_SEAHGT USA_SEARAD_NE USA_SEARAD_SE USA_SEARAD_SW USA_SEARAD_NW STORM_SPEED STORM_DIR
1958014S14162 1958 4 SP MM NOT_NAMED 1958-01-13 17:00:00 NR -14.0000 161.500 main 359 359 __________O___ -1 -14.0000 161.500 1 20 6 0
1958014S14162 1958 4 SP MM NOT_NAMED 1958-01-13 18:00:00 TS -14.0922 161.489 main 370 370 O________OP___ jtwc_sh SH071958 -14.1000 161.500 20 -1 -14.1000 161.500 TC 20 -14.0843 161.478 1 19 5 188
1958014S14162 1958 4 SP MM NOT_NAMED 1958-01-13 21:00:00 TS -14.3157 161.471 main 393 393 P________PP___ SH071958 -14.3050 161.507 17 -1 -14.3050 161.507 TC 17 -14.3298 161.421 1 18 4 186
1958014S14162 1958 4 SP MM NOT_NAMED 1958-01-14 00:00:00 TS -14.5195 161.459 main 415 415 O________OP___ jtwc_sh SH071958 -14.5000 161.500 15 -1 -14.5000 161.500 TC 15 -14.5487 161.398 1 17 4 182
1958014S14162 1958 4 SP MM NOT_NAMED 1958-01-14 03:00:00 TS -14.6886 161.462 main 437 437 P________PP___ SH071958 -14.6725 161.478 15 -1 -14.6725 161.478 TC 15 -14.7210 161.432 1 15 3 171
1958014S14162 1958 4 SP MM NOT_NAMED 1958-01-14 05:00:00 TS -14.7760 161.489 main 449 449 P________PO___ SH071958 -14.7640 161.483 15 -1 -14.7640 161.483 TC 15 -14.8000 161.500 1 15 3 157
1958014S14162 1958 4 SP MM NOT_NAMED 1958-01-14 06:00:00 TS -14.8090 161.516 main 449 448 O________OP___ jtwc_sh SH071958 -14.8000 161.500 15 -1 -14.8000 161.500 TC 15 -14.8269 161.549 1 15 3 116
1958014S14162 1958 4 SP MM NOT_NAMED 1958-01-14 09:00:00 TS -14.8619 161.668 main 459 459 P________PP___ SH071958 -14.8575 161.635 17 -1 -14.8575 161.635 TC 17 -14.8706 161.735 1 18 3 106
1958014S14162 1958 4 SP MM NOT_NAMED 1958-01-14 12:00:00 TS -14.8975 161.839 main 459 459 O________OP___ jtwc_sh SH071958 -14.9000 161.800 20 -1 -14.9000 161.800 TC 20 -14.8924 161.917 1 20 3 107
1958014S14162 1958 4 SP MM NOT_NAMED 1958-01-14 15:00:00 TS -14.9588 161.999 main 470 470 P________PP___ SH071958 -14.9699 161.990 22 -1 -14.9699 161.990 TC 22 -14.9365 162.017 1 23 3 127
1958014S14162 1958 4 SP MM NOT_NAMED 1958-01-14 17:00:00 TS -15.0312 162.021 main 470 470 P________PO___ SH071958 -15.0468 162.032 24 -1 -15.0468 162.032 TC 24 -15.0000 162.000 1 25 3 199
1958014S14162 1958 4 SP MM NOT_NAMED 1958-01-14 18:00:00 TS -15.0886 161.969 main 481 481 O________OP___ jtwc_sh SH071958 -15.1000 162.000 25 -1 -15.1000 162.000 TC 25 -15.0629 161.924 1 24 8 235
1958014S14162 1958 4 SP MM NOT_NAMED 1958-01-14 21:00:00 TS -15.3272 161.579 main 504 504 P________PP___ SH071958 -15.3353 161.610 25 -1 -15.3353 161.610 TC 25 -15.2984 161.578 1 23 10 239
1958014S14162 1958 4 SP MM NOT_NAMED 1958-01-15 00:00:00 TS -15.5911 161.100 main 542 542 O________OP___ jtwc_sh SH071958 -15.6000 161.100 25 -1 -15.6000 161.100 TC 25 -15.5716 161.140 1 22 10 239
1958014S14162 1958 4 SP MM NOT_NAMED 1958-01-15 03:00:00 TS -15.8211 160.725 main 572 572 P________PP___ SH071958 -15.8150 160.732 22 -1 -15.8150 160.732 TC 22 -15.8416 160.718 1 20 8 236
1958014S14162 1958 4 SP MM NOT_NAMED 1958-01-15 05:00:00 TS -15.9563 160.543 main 598 598 P________PO___ SH071958 -15.9417 160.558 20 -1 -15.9417 160.558 TC 20 -16.0000 160.500 1 20 6 230
1958014S14162 1958 4 SP MM NOT_NAMED 1958-01-15 06:00:00 TS -16.0146 160.489 main 598 594 O________OP___ jtwc_sh SH071958 -16.0000 160.500 20 -1 -16.0000 160.500 TC 20 -16.0582 160.456 1 19 4 207
1958014S14162 1958 4 SP MM NOT_NAMED 1958-01-15 09:00:00 TS -16.1712 160.434 main 594 578 P________PP___ SH071958 -16.1649 160.455 15 -1 -16.1649 160.455 TC 15 -16.2057 160.408 1 16 3 184
1958014S14162 1958 4 SP MM NOT_NAMED 1958-01-15 12:00:00 TS -16.2991 160.468 main 578 570 O________OP___ jtwc_sh SH071958 -16.3000 160.500 10 -1 -16.3000 160.500 TC 10 -16.3243 160.440 1 14 2 165
1958014S14162 1958 4 SP MM NOT_NAMED 1958-01-15 15:00:00 TS -16.4033 160.503 main 570 561 P________PP___ SH071958 -16.4000 160.522 10 -1 -16.4000 160.522 TC 10 -16.4296 160.489 1 11 2 167
1958014S14162 1958 4 SP MM NOT_NAMED 1958-01-15 17:00:00 TS -16.4717 160.508 main 561 561 P________PO___ SH071958 -16.4636 160.517 10 -1 -16.4636 160.517 TC 10 -16.5000 160.500 1 10 2 0
1958014S14162 1958 4 SP MM NOT_NAMED 1958-01-15 18:00:00 TS -16.5089 160.494 main 561 553 O________OP___ jtwc_sh SH071958 -16.5000 160.500 10 -1 -16.5000 160.500 TC 10 -16.5355 160.475 1 10 3 216
1958014S14162 1958 4 SP MM NOT_NAMED 1958-01-15 21:00:00 TS -16.6408 160.375 main 560 552 P________PP___ SH071958 -16.6425 160.365 12 -1 -16.6425 160.365 TC 12 -16.6396 160.373 1 11 4 223
1958014S14162 1958 4 SP MM NOT_NAMED 1958-01-16 00:00:00 TS -16.7841 160.225 main 560 552 O________OP___ jtwc_sh SH071958 -16.8000 160.200 15 -1 -16.8000 160.200 TC 15 -16.7519 160.241 1 12 4 222
1958014S14162 1958 4 SP MM NOT_NAMED 1958-01-16 03:00:00 TS -16.9240 160.104 main 559 552 P________PP___ SH071958 -16.9350 160.100 15 -1 -16.9350 160.100 TC 15 -16.8881 160.096 1 14 4 218
1958014S14162 1958 4 SP MM NOT_NAMED 1958-01-16 05:00:00 TS -17.0306 160.027 main 560 552 P________PO___ SH071958 -17.0386 160.036 15 -1 -17.0386 160.036 TC 15 -17.0000 160.000 1 15 4 214
1958014S14162 1958 4 SP EA NOT_NAMED 1958-01-16 06:00:00 TS -17.0916 159.987 main 552 546 O________OP___ jtwc_sh SH071958 -17.1000 160.000 15 -1 -17.1000 160.000 TC 15 -17.0666 159.946 1 15 5 211
1958014S14162 1958 4 SP EA NOT_NAMED 1958-01-16 09:00:00 TS -17.3022 159.855 main 546 541 P________PP___ SH071958 -17.3350 159.850 17 -1 -17.3350 159.850 TC 17 -17.2939 159.780 1 16 5 208
1958014S14162 1958 4 SP EA NOT_NAMED 1958-01-16 12:00:00 TS -17.5361 159.735 main 550 537 O________OP___ jtwc_sh SH071958 -17.6000 159.700 20 -1 -17.6000 159.700 TC 20 -17.5503 159.629 1 17 5 203
1958014S14162 1958 4 SP EA NOT_NAMED 1958-01-16 15:00:00 TS -17.7692 159.643 main 540 534 P________PP___ SH071958 -17.8500 159.570 20 -1 -17.8500 159.570 TC 20 -17.8202 159.527 1 19 5 197
1958014S14162 1958 4 SP EA NOT_NAMED 1958-01-16 17:00:00 TS -17.9272 159.611 main 534 528 P________PO___ SH071958 -18.0167 159.514 20 -1 -18.0167 159.514 TC 20 -18.0000 159.500 1 20 5 191
1958014S14162 1958 4 SP EA NOT_NAMED 1958-01-16 18:00:00 TS -18.0115 159.606 main 528 513 O________OP___ jtwc_sh SH071958 -18.1000 159.500 20 -1 -18.1000 159.500 TC 20 -18.1067 159.500 1 20 5 178
1958014S14162 1958 4 SP EA NOT_NAMED 1958-01-16 21:00:00 TS -18.2719 159.627 main 513 493 P________PP___ SH071958 -18.3499 159.498 20 -1 -18.3499 159.498 TC 20 -18.4363 159.554 1 20 5 169
1958014S14162 1958 4 SP EA NOT_NAMED 1958-01-17 00:00:00 TS -18.5336 159.719 main 493 461 O________OP___ jtwc_sh SH071958 -18.6000 159.600 20 -1 -18.6000 159.600 TC 20 -18.7345 159.676 1 20 6 157
1958014S14162 1958 4 SP EA NOT_NAMED 1958-01-17 03:00:00 TS -18.8334 159.876 main 461 443 P________PP___ SH071958 -18.9175 159.812 20 -1 -18.9175 159.812 TC 20 -18.9417 159.855 1 20 6 147
1958014S14162 1958 4 SP MM NOT_NAMED 1958-01-17 05:00:00 TS -18.9699 160.017 main 443 433 P________PO___ SH071958 -19.0681 160.000 20 -1 -19.0681 160.000 TC 20 -19.0000 160.000 1 20 5 129
1958014S14162 1958 4 SP MM NOT_NAMED 1958-01-17 06:00:00 TS -18.9978 160.095 main 433 408 O________OP___ jtwc_sh SH071958 -19.1000 160.100 20 -1 -19.1000 160.100 TC 20 -18.9913 160.079 1 20 5 69
1958014S14162 1958 4 SP MM NOT_NAMED 1958-01-17 09:00:00 TS -18.8392 160.375 main 412 400 P________PP___ SH071958 -18.9900 160.400 22 -1 -18.9900 160.400 TC 22 -18.8614 160.353 1 21 8 47
1958014S14162 1958 4 SP MM NOT_NAMED 1958-01-17 12:00:00 TS -18.4772 160.689 main 400 397 O________OP___ jtwc_sh SH071958 -18.7000 160.700 25 -1 -18.7000 160.700 TC 25 -18.6171 160.651 1 22 10 37
1958014S14162 1958 4 SP MM NOT_NAMED 1958-01-17 15:00:00 TS -18.0399 160.999 main 406 405 P________PP___ SH071958 -18.3650 160.980 25 -1 -18.3650 160.980 TC 25 -18.3115 160.936 1 24 11 32
1958014S14162 1958 4 SP MM NOT_NAMED 1958-01-17 17:00:00 TS -17.7376 161.183 main 413 413 P________PO___ SH071958 -18.1188 161.136 25 -1 -18.1188 161.136 TC 25 -18.1000 161.100 1 25 10 29
1958014S14162 1958 4 SP MM NOT_NAMED 1958-01-17 18:00:00 TS -17.5949 161.257 main 413 413 O________OP___ jtwc_sh SH071958 -18.0000 161.200 25 -1 -18.0000 161.200 TC 25 -17.9952 161.151 1 25 8 23
1958014S14162 1958 4 SP MM NOT_NAMED 1958-01-17 21:00:00 TS -17.2283 161.414 main 439 439 P________PP___ SH071958 -17.6849 161.315 25 -1 -17.6849 161.315 TC 25 -17.6617 161.265 1 25 7 22
1958014S14162 1958 4 SP MM NOT_NAMED 1958-01-18 00:00:00 TS -16.9859 161.515 main 450 450 O________OP___ jtwc_sh SH071958 -17.4000 161.400 25 -1 -17.4000 161.400 TC 25 -17.3435 161.360 1 26 4 26
1958014S14162 1958 4 SP MM NOT_NAMED 1958-01-18 03:00:00 TS -16.9149 161.574 main 453 453 P________PP___ SH071958 -17.0974 161.520 25 -1 -17.0974 161.520 TC 25 -17.0969 161.481 1 26 2 62
1958014S14162 1958 4 SP MM NOT_NAMED 1958-01-18 05:00:00 TS -16.9248 161.642 main 453 447 P________PO___ SH071958 -16.9464 161.630 25 -1 -16.9464 161.630 TC 25 -17.0000 161.600 1 27 2 108
1958014S14162 1958 4 SP MM NOT_NAMED 1958-01-18 06:00:00 TS -16.9507 161.693 main 438 417 O________OP___ jtwc_sh SH071958 -16.9000 161.700 25 -1 -16.9000 161.700 TC 25 -16.9775 161.676 1 26 5 122
1958014S14162 1958 4 SP MM NOT_NAMED 1958-01-18 09:00:00 TS -17.0943 161.929 main 417 381 P________PP___ SH071958 -16.8927 161.972 22 -1 -16.8927 161.972 TC 22 -17.0046 161.962 1 23 6 121
1958014S14162 1958 4 SP MM NOT_NAMED 1958-01-18 12:00:00 TS -17.2814 162.270 main 375 346 O________OP___ jtwc_sh SH071958 -17.0000 162.300 20 -1 -17.0000 162.300 TC 20 -17.1413 162.319 1 20 8 115
1958014S14162 1958 4 SP MM NOT_NAMED 1958-01-18 15:00:00 TS -17.4415 162.723 main 346 323 __________P___ SH071958 -1 TC -17.3461 162.720 1 17 9 103
1958014S14162 1958 4 SP MM NOT_NAMED 1958-01-18 17:00:00 TS -17.4595 163.070 main 319 319 __________O___ SH071958 -1 TC -17.5000 163.000 1 15 11 86
1958014S14162 1958 4 SP MM NOT_NAMED 1958-01-18 18:00:00 TS -17.4000 163.300 main 324 ______________ -1 1 14 75

Digital Typhoon Data and Search

About IBTrACS Database

This database is a web-friendly format of International Best Track Archive for Climate Stewardship (IBTrACS), a global best track data archive curated by NOAA dating back to 1842.

Updated: 2021-11-26